Anna G. — 3FXC9 — position and weather

sailwx.info

Track history (hours):
 
Tides and Currents Weather Stations Pressure Air Temp Water Temp Dewpoint Dewpoint Depression Visibility Wind Speed Wind Dir Waves Ship Positions

Anna G.

Last reported at 2017-Dec-03 05:09 UTC. Time now 2018-Jan-21 10:48 UTC.
Position N 31°15' E 032°21'.
Warning: this ship's position is 49 days out of date.

Length 229 m; draft 14.7 m.

Type: Cargo ship. MMSI: 352358000.

Date/timePositionNaut miles runAvg speedWind from/ knotsBaromVisibWave heightAir tempDewpointWater temp
2017-Dec-03 05:09N 31°15' E 032°21'1 3.5
2017-Dec-03 04:54N 31°16' E 032°21'2 5.1
2017-Dec-03 04:30N 31°18' E 032°22'8 2.4
2017-Dec-03 01:04N 31°26' E 032°20'0 0.2
2017-Dec-03 01:00N 31°26' E 032°20'0 0.6
2017-Dec-03 00:29N 31°25' E 032°20'  
2017-Nov-29 21:31N 36°12' E 014°50'013.0
2017-Nov-29 21:29N 36°12' E 014°50'613.1
2017-Nov-29 21:00N 36°14' E 014°42'712.8
2017-Nov-29 20:30N 36°16' E 014°35'613.0
2017-Nov-29 20:00N 36°18' E 014°27'612.8
2017-Nov-29 19:30N 36°20' E 014°20'712.7
2017-Nov-29 19:00N 36°22' E 014°12'612.7
2017-Nov-29 18:30N 36°24' E 014°05'612.7
2017-Nov-29 18:00N 36°25' E 013°57'612.6
2017-Nov-29 17:30N 36°27' E 013°50'  
2017-Nov-26 17:28N 36°00' W 005°08'714.6
2017-Nov-26 17:01N 35°59' W 005°16'714.5
2017-Nov-26 16:30N 35°58' W 005°25'14712.7
2017-Nov-26 04:56N 35°54' W 008°26'612.7
2017-Nov-26 04:29N 35°54' W 008°33'3612.9
2017-Nov-26 01:40N 35°53' W 009°18'212.9
2017-Nov-26 01:29N 35°53' W 009°21'612.7
2017-Nov-26 01:00N 35°52' W 009°28'2212.7
2017-Nov-25 23:14N 35°53' W 009°56'312.3
2017-Nov-25 23:00N 35°53' W 009°59'612.2
2017-Nov-25 22:30N 35°53' W 010°07'612.5
2017-Nov-25 21:59N 35°53' W 010°15'812.7
2017-Nov-25 21:19N 35°53' W 010°25'412.2
2017-Nov-25 21:00N 35°54' W 010°30'612.2
2017-Nov-25 20:30N 35°54' W 010°37'612.6
2017-Nov-25 20:00N 35°54' W 010°45'612.8
2017-Nov-25 19:30N 35°54' W 010°53'6712.5
2017-Nov-25 14:07N 35°53' W 012°16'412.5
2017-Nov-25 13:46N 35°53' W 012°21'6912.1
2017-Nov-25 08:04N 35°53' W 013°47'51212.6
2017-Nov-23 15:24N 35°55' W 024°19'512.9
2017-Nov-23 15:00N 35°55' W 024°25'713.2
2017-Nov-23 14:30N 35°55' W 024°33'612.9
2017-Nov-23 14:00N 35°55' W 024°41'612.7
2017-Nov-23 13:30N 35°55' W 024°49'612.7
2017-Nov-23 13:01N 35°55' W 024°57'612.7
2017-Nov-23 12:30N 35°55' W 025°05'612.6
2017-Nov-23 12:00N 35°54' W 025°13'612.6
2017-Nov-23 11:31N 35°54' W 025°20'612.7
2017-Nov-23 11:00N 35°55' W 025°28'612.7
2017-Nov-23 10:30N 35°55' W 025°36'712.8
2017-Nov-23 10:00N 35°55' W 025°44'612.5
2017-Nov-23 09:29N 35°55' W 025°52'  
Track history (hours):
 
Tides and Currents Weather Stations Pressure Air Temp Water Temp Dewpoint Dewpoint Depression Visibility Wind Speed Wind Dir Waves Ship Positions

Anna G.

Last reported at 2017-Dec-03 05:09 UTC. Time now 2018-Jan-21 10:48 UTC.
Position N 31°15' E 032°21'.
Warning: this ship's position is 49 days out of date.

Length 229 m; draft 14.7 m.

Type: Cargo ship. MMSI: 352358000.

Date/timePositionNaut miles runAvg speedWind from/ knotsBaromVisibWave heightAir tempDewpointWater temp
2017-Dec-03 05:09N 31°15' E 032°21'1 3.5
2017-Dec-03 04:54N 31°16' E 032°21'2 5.1
2017-Dec-03 04:30N 31°18' E 032°22'8 2.4
2017-Dec-03 01:04N 31°26' E 032°20'0 0.2
2017-Dec-03 01:00N 31°26' E 032°20'0 0.6
2017-Dec-03 00:29N 31°25' E 032°20'  
2017-Nov-29 21:31N 36°12' E 014°50'013.0
2017-Nov-29 21:29N 36°12' E 014°50'613.1
2017-Nov-29 21:00N 36°14' E 014°42'712.8
2017-Nov-29 20:30N 36°16' E 014°35'613.0
2017-Nov-29 20:00N 36°18' E 014°27'612.8
2017-Nov-29 19:30N 36°20' E 014°20'712.7
2017-Nov-29 19:00N 36°22' E 014°12'612.7
2017-Nov-29 18:30N 36°24' E 014°05'612.7
2017-Nov-29 18:00N 36°25' E 013°57'612.6
2017-Nov-29 17:30N 36°27' E 013°50'  
2017-Nov-26 17:28N 36°00' W 005°08'714.6
2017-Nov-26 17:01N 35°59' W 005°16'714.5
2017-Nov-26 16:30N 35°58' W 005°25'14712.7
2017-Nov-26 04:56N 35°54' W 008°26'612.7
2017-Nov-26 04:29N 35°54' W 008°33'3612.9
2017-Nov-26 01:40N 35°53' W 009°18'212.9
2017-Nov-26 01:29N 35°53' W 009°21'612.7
2017-Nov-26 01:00N 35°52' W 009°28'2212.7
2017-Nov-25 23:14N 35°53' W 009°56'312.3
2017-Nov-25 23:00N 35°53' W 009°59'612.2
2017-Nov-25 22:30N 35°53' W 010°07'612.5
2017-Nov-25 21:59N 35°53' W 010°15'812.7
2017-Nov-25 21:19N 35°53' W 010°25'412.2
2017-Nov-25 21:00N 35°54' W 010°30'612.2
2017-Nov-25 20:30N 35°54' W 010°37'612.6
2017-Nov-25 20:00N 35°54' W 010°45'612.8
2017-Nov-25 19:30N 35°54' W 010°53'6712.5
2017-Nov-25 14:07N 35°53' W 012°16'412.5
2017-Nov-25 13:46N 35°53' W 012°21'6912.1
2017-Nov-25 08:04N 35°53' W 013°47'51212.6
2017-Nov-23 15:24N 35°55' W 024°19'512.9
2017-Nov-23 15:00N 35°55' W 024°25'713.2
2017-Nov-23 14:30N 35°55' W 024°33'612.9
2017-Nov-23 14:00N 35°55' W 024°41'612.7
2017-Nov-23 13:30N 35°55' W 024°49'612.7
2017-Nov-23 13:01N 35°55' W 024°57'612.7
2017-Nov-23 12:30N 35°55' W 025°05'612.6
2017-Nov-23 12:00N 35°54' W 025°13'612.6
2017-Nov-23 11:31N 35°54' W 025°20'612.7
2017-Nov-23 11:00N 35°55' W 025°28'612.7
2017-Nov-23 10:30N 35°55' W 025°36'712.8
2017-Nov-23 10:00N 35°55' W 025°44'612.5
2017-Nov-23 09:29N 35°55' W 025°52'  

Dump ship's entire track history